createdAt,value
2022-10-28T00:01:11.722Z,13.90
2022-10-28T00:04:00.872Z,13.90
2022-10-28T00:06:47.356Z,13.80
2022-10-28T00:09:33.926Z,13.90
2022-10-28T00:12:21.527Z,14.10
2022-10-28T00:15:08.416Z,14.00
2022-10-28T00:17:55.081Z,14.10
2022-10-28T00:20:42.025Z,14.20
2022-10-28T00:23:28.428Z,14.20
2022-10-28T00:26:17.800Z,14.10
2022-10-28T00:29:07.723Z,14.30
2022-10-28T00:31:55.378Z,14.20
2022-10-28T00:34:41.781Z,14.20
2022-10-28T00:37:27.988Z,14.30
2022-10-28T00:40:14.528Z,14.30
2022-10-28T00:43:00.936Z,14.30
2022-10-28T00:45:48.518Z,14.30
2022-10-28T00:48:35.540Z,14.40
2022-10-28T00:51:25.775Z,14.40
2022-10-28T00:54:14.368Z,14.40
2022-10-28T00:57:03.999Z,14.50
2022-10-28T00:59:54.256Z,14.50
2022-10-28T01:02:45.768Z,14.60
2022-10-28T01:05:35.744Z,14.50
2022-10-28T01:08:22.521Z,14.50
2022-10-28T01:11:39.307Z,14.40
2022-10-28T01:14:35.128Z,14.30
2022-10-28T01:17:51.197Z,14.30
2022-10-28T01:21:07.568Z,14.10
2022-10-28T01:24:08.068Z,13.90
2022-10-28T01:27:29.601Z,13.70
2022-10-28T01:30:19.283Z,13.60
2022-10-28T01:33:15.220Z,13.50
2022-10-28T01:36:10.912Z,13.50
2022-10-28T01:39:02.584Z,13.50
2022-10-28T01:41:55.114Z,13.50
2022-10-28T01:44:49.052Z,13.50
2022-10-28T01:47:37.354Z,13.60
2022-10-28T01:50:29.724Z,13.60
2022-10-28T01:53:21.546Z,13.80
2022-10-28T01:56:11.638Z,14.00
2022-10-28T01:59:00.901Z,14.10
2022-10-28T02:01:47.627Z,14.10
2022-10-28T02:04:34.432Z,14.10
2022-10-28T02:07:22.069Z,14.10
2022-10-28T02:10:17.196Z,14.20
2022-10-28T02:13:11.813Z,14.10
2022-10-28T02:16:06.669Z,14.20
2022-10-28T02:19:02.703Z,14.20
2022-10-28T02:22:02.212Z,14.00
2022-10-28T02:25:01.355Z,14.00
2022-10-28T02:27:53.011Z,14.00
2022-10-28T02:30:45.916Z,14.10
2022-10-28T02:33:38.111Z,14.10
2022-10-28T02:36:27.031Z,13.90
2022-10-28T02:39:14.877Z,13.80
2022-10-28T02:42:07.352Z,13.90
2022-10-28T02:44:59.728Z,14.00
2022-10-28T02:47:49.269Z,14.10
2022-10-28T02:50:39.092Z,14.20
2022-10-28T02:53:31.425Z,14.20
2022-10-28T02:56:20.862Z,14.30
2022-10-28T02:59:12.455Z,14.30
2022-10-28T03:01:58.854Z,14.10
2022-10-28T03:04:45.579Z,14.10
2022-10-28T03:07:32.263Z,14.10
2022-10-28T03:10:18.753Z,13.90
2022-10-28T03:13:05.196Z,13.80
2022-10-28T03:15:52.876Z,13.80
2022-10-28T03:18:39.461Z,13.80
2022-10-28T03:21:25.708Z,13.70
2022-10-28T03:24:12.066Z,13.60
2022-10-28T03:26:58.378Z,13.70
2022-10-28T03:29:46.009Z,13.80
2022-10-28T03:32:34.425Z,13.80
2022-10-28T03:35:20.784Z,13.80
2022-10-28T03:38:07.347Z,13.90
2022-10-28T03:40:53.759Z,14.00
2022-10-28T03:43:40.082Z,14.20
2022-10-28T03:46:26.458Z,14.20
2022-10-28T03:49:14.349Z,14.30
2022-10-28T03:52:00.731Z,14.40
2022-10-28T03:54:47.654Z,14.50
2022-10-28T03:57:34.545Z,14.40
2022-10-28T04:00:21.365Z,14.40
2022-10-28T04:03:07.871Z,14.30
2022-10-28T04:05:55.984Z,14.40
2022-10-28T04:08:42.289Z,14.20
2022-10-28T04:11:28.733Z,14.10
2022-10-28T04:14:15.155Z,14.10
2022-10-28T04:17:01.497Z,14.00
2022-10-28T04:19:47.921Z,14.00
2022-10-28T04:22:35.661Z,13.90
2022-10-28T04:25:22.783Z,13.90
2022-10-28T04:28:09.406Z,13.90
2022-10-28T04:30:55.848Z,14.00
2022-10-28T04:33:42.217Z,14.10
2022-10-28T04:36:28.597Z,14.20
2022-10-28T04:39:16.491Z,14.30
2022-10-28T04:42:02.981Z,14.30
2022-10-28T04:44:49.223Z,14.40
2022-10-28T04:47:35.793Z,14.50
2022-10-28T04:50:22.028Z,14.40
2022-10-28T04:53:08.400Z,14.50
2022-10-28T04:55:59.431Z,14.40
2022-10-28T04:58:45.818Z,14.40
2022-10-28T05:01:32.148Z,14.30
2022-10-28T05:04:18.981Z,14.40
2022-10-28T05:07:05.484Z,14.40
2022-10-28T05:09:51.760Z,14.40
2022-10-28T05:12:41.923Z,14.50
2022-10-28T05:15:28.769Z,14.50
2022-10-28T05:18:15.008Z,14.60
2022-10-28T05:21:01.205Z,14.50
2022-10-28T05:23:47.659Z,14.60
2022-10-28T05:26:34.352Z,14.50
2022-10-28T05:29:22.016Z,14.50
2022-10-28T05:32:08.615Z,14.40
2022-10-28T05:34:54.897Z,14.40
2022-10-28T05:37:41.345Z,14.30
2022-10-28T05:40:27.660Z,14.30
2022-10-28T05:43:14.001Z,14.30
2022-10-28T05:46:02.552Z,14.10
2022-10-28T05:48:49.252Z,14.10
2022-10-28T05:51:35.633Z,13.90
2022-10-28T05:54:22.026Z,13.60
2022-10-28T05:57:08.744Z,13.50
2022-10-28T05:59:55.190Z,13.30
2022-10-28T06:02:43.026Z,13.30
2022-10-28T06:05:29.881Z,13.10
2022-10-28T06:08:16.184Z,13.10
2022-10-28T06:11:01.108Z,13.10
2022-10-28T06:13:47.479Z,13.10
2022-10-28T06:16:33.827Z,13.10
2022-10-28T06:19:21.628Z,13.00
2022-10-28T06:22:08.103Z,13.00
2022-10-28T06:24:54.596Z,13.00
2022-10-28T06:27:41.476Z,13.10
2022-10-28T06:30:28.361Z,13.10
2022-10-28T06:33:15.054Z,13.20
2022-10-28T06:36:03.356Z,13.40
2022-10-28T06:38:52.722Z,13.50
2022-10-28T06:41:39.041Z,13.40
2022-10-28T06:44:25.405Z,13.40
2022-10-28T06:47:13.258Z,13.60
2022-10-28T06:49:59.760Z,13.70
2022-10-28T06:52:47.532Z,13.90
2022-10-28T06:55:33.883Z,14.00
2022-10-28T06:58:20.397Z,14.10
2022-10-28T07:01:07.282Z,14.20
2022-10-28T07:03:53.588Z,14.30
2022-10-28T07:06:40.783Z,14.40
2022-10-28T07:09:28.739Z,14.40
2022-10-28T07:12:15.524Z,14.50
2022-10-28T07:15:02.335Z,14.60
2022-10-28T07:17:53.616Z,14.60
2022-10-28T07:20:39.957Z,14.60
2022-10-28T07:23:26.343Z,14.50
2022-10-28T07:26:13.904Z,14.40
2022-10-28T07:29:00.364Z,14.40
2022-10-28T07:31:46.715Z,14.50
2022-10-28T07:34:33.203Z,14.40
2022-10-28T07:37:19.553Z,14.40
2022-10-28T07:40:07.002Z,14.20
2022-10-28T07:42:55.614Z,14.10
2022-10-28T07:45:42.939Z,14.10
2022-10-28T07:48:29.583Z,14.00
2022-10-28T07:51:17.417Z,13.80
2022-10-28T07:54:04.165Z,13.90
2022-10-28T07:56:50.545Z,14.10
2022-10-28T07:59:38.539Z,14.10
2022-10-28T08:02:26.579Z,14.00
2022-10-28T08:05:12.942Z,13.90
2022-10-28T08:07:59.298Z,13.90
2022-10-28T08:10:45.739Z,14.00
2022-10-28T08:13:35.758Z,14.20
2022-10-28T08:16:28.090Z,14.40
2022-10-28T08:19:14.876Z,14.50
2022-10-28T08:22:02.317Z,14.60
2022-10-28T08:24:48.929Z,14.70
2022-10-28T08:27:35.334Z,14.70
2022-10-28T08:30:21.619Z,14.80
2022-10-28T08:33:09.848Z,14.80
2022-10-28T08:35:56.299Z,14.70
2022-10-28T08:38:45.707Z,14.80
2022-10-28T08:41:38.986Z,14.80
2022-10-28T08:45:03.924Z,14.80
2022-10-28T08:47:55.101Z,14.60
2022-10-28T08:50:47.604Z,14.40
2022-10-28T08:53:41.362Z,14.50
2022-10-28T08:56:34.449Z,14.40
2022-10-28T08:59:26.340Z,14.50
2022-10-28T09:02:22.417Z,14.70
2022-10-28T09:05:20.338Z,15.00
2022-10-28T09:08:11.083Z,15.10
2022-10-28T09:11:09.402Z,15.30
2022-10-28T09:14:09.132Z,15.50
2022-10-28T09:17:07.568Z,15.60
2022-10-28T09:20:01.937Z,15.70
2022-10-28T09:22:56.673Z,15.70
2022-10-28T09:25:52.309Z,15.80
2022-10-28T09:28:52.034Z,15.70
2022-10-28T09:31:41.699Z,15.70
2022-10-28T09:34:34.761Z,15.60
2022-10-28T09:37:25.168Z,15.70
2022-10-28T09:40:17.898Z,15.70
2022-10-28T09:43:10.590Z,15.60
2022-10-28T09:46:01.733Z,15.70
2022-10-28T09:48:50.360Z,15.90
2022-10-28T09:51:46.679Z,16.00
2022-10-28T09:54:36.927Z,16.00
2022-10-28T09:57:30.099Z,16.20
2022-10-28T10:00:19.139Z,16.30
2022-10-28T10:03:06.040Z,16.40
2022-10-28T10:05:56.914Z,16.70
2022-10-28T10:08:45.092Z,16.90
2022-10-28T10:11:37.009Z,17.00
2022-10-28T10:14:29.088Z,17.10
2022-10-28T10:17:21.134Z,17.10
2022-10-28T10:20:09.947Z,17.20
2022-10-28T10:22:56.808Z,17.30
2022-10-28T10:25:45.139Z,17.50
2022-10-28T10:28:33.500Z,17.60
2022-10-28T10:31:22.054Z,17.80
2022-10-28T10:34:23.503Z,18.10
2022-10-28T10:37:22.022Z,18.10
2022-10-28T10:40:23.633Z,18.30
2022-10-28T10:43:23.812Z,18.30
2022-10-28T10:46:14.911Z,18.20
2022-10-28T10:49:15.732Z,18.30
2022-10-28T10:52:04.085Z,18.20
2022-10-28T10:55:01.902Z,18.00
2022-10-28T10:57:49.662Z,18.00
2022-10-28T11:00:39.371Z,17.90
2022-10-28T11:03:31.300Z,17.90
2022-10-28T11:06:24.982Z,18.10
2022-10-28T11:09:21.392Z,18.30
2022-10-28T11:12:16.238Z,18.60
2022-10-28T11:15:04.157Z,19.20
2022-10-28T11:17:57.176Z,19.60
2022-10-28T11:20:52.357Z,19.80
2022-10-28T11:23:52.762Z,19.80
2022-10-28T11:26:47.556Z,19.70
2022-10-28T11:29:34.279Z,19.60
2022-10-28T11:32:30.789Z,19.50
2022-10-28T11:35:43.677Z,19.50
2022-10-28T11:38:57.459Z,19.90
2022-10-28T11:41:53.300Z,20.20
2022-10-28T11:44:47.887Z,20.30
2022-10-28T11:47:46.496Z,20.40
2022-10-28T11:50:39.701Z,20.50
2022-10-28T11:53:57.730Z,20.70
2022-10-28T11:56:47.780Z,20.70
2022-10-28T12:00:00.568Z,20.70
2022-10-28T12:03:09.331Z,20.80
2022-10-28T12:06:04.066Z,20.80
2022-10-28T12:09:12.681Z,20.90
2022-10-28T12:12:16.406Z,21.40
2022-10-28T12:15:11.909Z,22.00
2022-10-28T12:18:06.249Z,22.20
2022-10-28T12:21:00.568Z,22.60
2022-10-28T12:23:49.099Z,22.50
2022-10-28T12:26:40.947Z,22.80
2022-10-28T12:29:30.253Z,22.90
2022-10-28T12:32:23.221Z,23.00
2022-10-28T12:35:18.409Z,23.10
2022-10-28T12:38:09.132Z,22.90
2022-10-28T12:41:04.878Z,22.90
2022-10-28T12:43:58.169Z,22.90
2022-10-28T12:46:52.976Z,22.80
2022-10-28T12:49:49.027Z,23.00
2022-10-28T12:52:42.857Z,22.90
2022-10-28T12:55:32.731Z,22.90
2022-10-28T12:58:25.010Z,22.90
2022-10-28T13:01:16.467Z,22.80
2022-10-28T13:04:03.708Z,22.70
2022-10-28T13:07:14.581Z,22.80
2022-10-28T13:10:13.731Z,22.70
2022-10-28T13:13:14.797Z,22.70
2022-10-28T13:16:28.079Z,22.60
2022-10-28T13:19:30.897Z,22.70
2022-10-28T13:22:29.647Z,22.60
2022-10-28T13:25:30.035Z,22.60
2022-10-28T13:28:18.067Z,22.50
2022-10-28T13:31:08.071Z,22.60
2022-10-28T13:33:58.866Z,22.60
2022-10-28T13:36:51.236Z,22.60
2022-10-28T13:39:44.498Z,22.50
2022-10-28T13:42:45.286Z,22.50
2022-10-28T13:45:48.111Z,22.40
2022-10-28T13:48:48.579Z,22.20
2022-10-28T13:51:47.484Z,22.10
2022-10-28T13:54:53.539Z,22.10
2022-10-28T13:57:42.971Z,22.00
2022-10-28T14:00:38.425Z,21.80
2022-10-28T14:03:27.020Z,21.70
2022-10-28T14:06:32.544Z,21.60
2022-10-28T14:09:23.277Z,21.60
2022-10-28T14:12:22.164Z,21.60
2022-10-28T14:15:21.980Z,21.60
2022-10-28T14:18:43.844Z,21.70
2022-10-28T14:21:42.240Z,21.70
2022-10-28T14:24:36.370Z,21.70
2022-10-28T14:27:30.483Z,21.50
2022-10-28T14:30:23.657Z,21.60
2022-10-28T14:33:30.994Z,21.60
2022-10-28T14:36:30.228Z,21.60
2022-10-28T14:39:32.853Z,21.60
2022-10-28T14:42:33.795Z,21.50
2022-10-28T14:45:31.781Z,21.60
2022-10-28T14:48:47.120Z,21.60
2022-10-28T14:51:41.769Z,21.50
2022-10-28T14:54:39.607Z,21.50
2022-10-28T14:57:33.659Z,21.50
2022-10-28T15:00:22.883Z,21.40
2022-10-28T15:03:11.876Z,21.40
2022-10-28T15:06:03.162Z,21.30
2022-10-28T15:08:49.570Z,21.10
2022-10-28T15:11:36.273Z,21.00
2022-10-28T15:14:34.112Z,20.90
2022-10-28T15:17:22.280Z,20.90
2022-10-28T15:20:20.684Z,20.80
2022-10-28T15:23:13.647Z,20.80
2022-10-28T15:26:06.854Z,20.80
2022-10-28T15:28:53.294Z,20.80
2022-10-28T15:32:05.261Z,20.70
2022-10-28T15:34:51.938Z,20.70
2022-10-28T15:37:39.316Z,20.50
2022-10-28T15:40:30.264Z,20.40
2022-10-28T15:43:20.170Z,20.40
2022-10-28T15:46:11.934Z,20.10
2022-10-28T15:49:01.404Z,20.10
2022-10-28T15:52:21.958Z,19.90
2022-10-28T15:56:02.464Z,19.80
2022-10-28T15:58:41.119Z,19.60
2022-10-28T16:01:39.348Z,19.50
2022-10-28T16:04:44.836Z,19.50
2022-10-28T16:07:31.418Z,19.40
2022-10-28T16:10:17.874Z,19.40
2022-10-28T16:13:09.099Z,19.40
2022-10-28T16:16:08.718Z,19.40
2022-10-28T16:19:02.210Z,19.30
2022-10-28T16:21:50.273Z,19.20
2022-10-28T16:24:36.714Z,19.10
2022-10-28T16:27:24.836Z,19.10
2022-10-28T16:30:12.595Z,18.90
2022-10-28T16:32:59.479Z,18.50
2022-10-28T16:35:45.759Z,18.20
2022-10-28T16:38:33.921Z,18.10
2022-10-28T16:41:21.209Z,18.00
2022-10-28T16:44:16.025Z,18.00
2022-10-28T16:47:02.484Z,17.90
2022-10-28T16:49:54.101Z,17.80
2022-10-28T16:52:44.240Z,17.60
2022-10-28T16:55:32.132Z,17.40
2022-10-28T16:58:23.074Z,17.40
2022-10-28T17:01:12.077Z,17.40
2022-10-28T17:03:58.831Z,17.50
2022-10-28T17:06:45.098Z,17.50
2022-10-28T17:09:31.533Z,17.50
2022-10-28T17:12:20.916Z,17.70
2022-10-28T17:15:08.400Z,17.70
2022-10-28T17:17:54.783Z,17.70
2022-10-28T17:20:41.607Z,17.70
2022-10-28T17:23:28.293Z,17.80
2022-10-28T17:26:14.664Z,17.90
2022-10-28T17:29:02.519Z,17.90
2022-10-28T17:31:49.004Z,17.90
2022-10-28T17:34:35.632Z,17.90
2022-10-28T17:37:22.507Z,17.90
2022-10-28T17:40:10.980Z,17.80
2022-10-28T17:42:59.142Z,17.80
2022-10-28T17:45:46.839Z,17.70
2022-10-28T17:48:33.243Z,17.70
2022-10-28T17:51:20.859Z,17.70
2022-10-28T17:54:07.537Z,17.60
2022-10-28T17:56:54.097Z,17.60
2022-10-28T17:59:40.539Z,17.50
2022-10-28T18:02:28.324Z,17.50
2022-10-28T18:05:15.448Z,17.60
2022-10-28T18:08:01.756Z,17.50
2022-10-28T18:10:54.852Z,17.30
2022-10-28T18:13:44.881Z,17.10
2022-10-28T18:16:31.515Z,16.80
2022-10-28T18:19:19.311Z,16.70
2022-10-28T18:22:06.181Z,16.70
2022-10-28T18:24:54.015Z,16.60
2022-10-28T18:27:41.281Z,16.50
2022-10-28T18:30:28.444Z,16.40
2022-10-28T18:33:14.830Z,16.20
2022-10-28T18:36:04.262Z,16.00
2022-10-28T18:38:51.802Z,16.00
2022-10-28T18:41:41.749Z,16.00
2022-10-28T18:44:31.827Z,16.00
2022-10-28T18:47:18.450Z,16.10
2022-10-28T18:50:05.440Z,16.20
2022-10-28T18:52:53.541Z,16.30
2022-10-28T18:55:40.594Z,16.40
2022-10-28T18:58:27.575Z,16.40
2022-10-28T19:01:16.296Z,16.50
2022-10-28T19:04:05.130Z,16.60
2022-10-28T19:06:51.808Z,16.60
2022-10-28T19:09:39.450Z,16.70
2022-10-28T19:12:25.910Z,16.70
2022-10-28T19:15:12.187Z,16.60
2022-10-28T19:17:58.623Z,16.70
2022-10-28T19:20:45.122Z,16.80
2022-10-28T19:23:32.382Z,16.70
2022-10-28T19:26:20.820Z,16.70
2022-10-28T19:29:07.237Z,16.60
2022-10-28T19:31:53.736Z,16.60
2022-10-28T19:34:40.024Z,16.60
2022-10-28T19:37:27.127Z,16.70
2022-10-28T19:40:13.534Z,16.60
2022-10-28T19:43:02.977Z,16.50
2022-10-28T19:45:49.264Z,16.50
2022-10-28T19:48:35.728Z,16.30
2022-10-28T19:51:24.122Z,16.10
2022-10-28T19:54:12.400Z,15.80
2022-10-28T19:56:58.889Z,15.60
2022-10-28T19:59:46.919Z,15.50
2022-10-28T20:02:33.593Z,15.40
2022-10-28T20:05:20.451Z,15.40
2022-10-28T20:08:06.890Z,15.40
2022-10-28T20:10:58.815Z,15.40
2022-10-28T20:13:45.704Z,15.50
2022-10-28T20:16:34.752Z,15.50
2022-10-28T20:19:21.384Z,15.60
2022-10-28T20:22:07.777Z,15.80
2022-10-28T20:24:54.131Z,15.80
2022-10-28T20:27:40.607Z,15.90
2022-10-28T20:30:26.907Z,15.90
2022-10-28T20:33:14.751Z,16.00
2022-10-28T20:36:01.477Z,16.00
2022-10-28T20:38:47.792Z,16.00
2022-10-28T20:41:36.312Z,16.00
2022-10-28T20:44:22.849Z,15.90
2022-10-28T20:47:09.327Z,15.60
2022-10-28T20:49:56.986Z,15.50
2022-10-28T20:52:43.432Z,15.50
2022-10-28T20:55:29.952Z,15.50
2022-10-28T20:58:16.461Z,15.60
2022-10-28T21:01:04.195Z,15.50
2022-10-28T21:03:53.775Z,15.20
2022-10-28T21:06:41.635Z,15.00
2022-10-28T21:09:28.234Z,14.80
2022-10-28T21:12:14.745Z,14.70
2022-10-28T21:15:01.123Z,14.70
2022-10-28T21:17:47.376Z,14.70
2022-10-28T21:20:36.614Z,14.70
2022-10-28T21:23:24.612Z,14.80
2022-10-28T21:26:12.647Z,14.90
2022-10-28T21:28:58.947Z,14.80
2022-10-28T21:31:45.423Z,14.90
2022-10-28T21:34:31.850Z,14.90
2022-10-28T21:37:18.648Z,15.00
2022-10-28T21:40:08.488Z,15.00
2022-10-28T21:42:55.243Z,15.00
2022-10-28T21:45:41.644Z,15.20
2022-10-28T21:48:28.516Z,15.20
2022-10-28T21:51:16.880Z,15.20
2022-10-28T21:54:03.410Z,15.20
2022-10-28T21:56:52.038Z,15.40
2022-10-28T21:59:38.657Z,15.30
2022-10-28T22:02:25.676Z,15.20
2022-10-28T22:05:12.515Z,15.30
2022-10-28T22:08:01.859Z,15.40
2022-10-28T22:10:51.046Z,15.40
2022-10-28T22:13:38.863Z,15.30
2022-10-28T22:16:25.692Z,15.30
2022-10-28T22:19:15.317Z,15.20
2022-10-28T22:22:01.785Z,15.00
2022-10-28T22:24:48.289Z,14.80
2022-10-28T22:27:34.575Z,14.80
2022-10-28T22:30:22.397Z,14.70
2022-10-28T22:33:08.937Z,14.50
2022-10-28T22:35:58.428Z,14.30
2022-10-28T22:38:45.290Z,14.20
2022-10-28T22:41:33.066Z,14.20
2022-10-28T22:44:19.599Z,14.30
2022-10-28T22:47:07.323Z,14.40
2022-10-28T22:49:53.803Z,14.50
2022-10-28T22:52:40.395Z,14.50
2022-10-28T22:55:26.728Z,14.50
2022-10-28T22:58:13.211Z,14.40
2022-10-28T23:01:07.339Z,14.00
2022-10-28T23:03:56.657Z,13.90
2022-10-28T23:06:43.226Z,14.00
2022-10-28T23:09:29.617Z,13.90
2022-10-28T23:12:15.952Z,13.80
2022-10-28T23:15:02.342Z,13.70
2022-10-28T23:17:49.514Z,13.80
2022-10-28T23:20:37.651Z,13.80
2022-10-28T23:23:24.043Z,13.80
2022-10-28T23:26:12.816Z,13.90
2022-10-28T23:29:01.092Z,13.90
2022-10-28T23:31:47.578Z,14.10
2022-10-28T23:34:34.057Z,14.10
2022-10-28T23:37:21.808Z,14.00
2022-10-28T23:43:01.512Z,14.00
2022-10-28T23:45:48.058Z,13.90
2022-10-28T23:48:34.470Z,13.80
2022-10-28T23:51:20.900Z,13.90
2022-10-28T23:54:08.964Z,14.00
2022-10-28T23:56:55.619Z,14.00
2022-10-28T23:59:42.230Z,13.90
